sensor_id;sensor_type;location;lat;lon;timestamp;pressure;altitude;pressure_sealevel;temperature;humidity
51261;BME280;61705;46.228;24.812;2024-01-15T00:00:52;96700.72;;;-5.66;100.00
51261;BME280;61705;46.228;24.812;2024-01-15T00:03:19;96698.16;;;-5.63;100.00
51261;BME280;61705;46.228;24.812;2024-01-15T00:05:45;96693.84;;;-5.64;100.00
51261;BME280;61705;46.228;24.812;2024-01-15T00:08:12;96690.44;;;-5.53;100.00
51261;BME280;61705;46.228;24.812;2024-01-15T00:10:39;96687.00;;;-5.55;100.00
51261;BME280;61705;46.228;24.812;2024-01-15T00:13:07;96688.69;;;-5.69;100.00
51261;BME280;61705;46.228;24.812;2024-01-15T00:15:34;96688.69;;;-5.64;100.00
51261;BME280;61705;46.228;24.812;2024-01-15T00:18:00;96680.97;;;-5.64;100.00
51261;BME280;61705;46.228;24.812;2024-01-15T00:20:27;96687.84;;;-5.66;100.00
51261;BME280;61705;46.228;24.812;2024-01-15T00:22:56;96688.69;;;-5.69;100.00
51261;BME280;61705;46.228;24.812;2024-01-15T00:25:23;96680.09;;;-5.76;100.00
51261;BME280;61705;46.228;24.812;2024-01-15T00:27:50;96677.50;;;-5.85;100.00
51261;BME280;61705;46.228;24.812;2024-01-15T00:30:16;96677.50;;;-5.86;100.00
51261;BME280;61705;46.228;24.812;2024-01-15T00:32:43;96668.09;;;-5.83;100.00
51261;BME280;61705;46.228;24.812;2024-01-15T00:35:10;96663.81;;;-5.72;100.00
51261;BME280;61705;46.228;24.812;2024-01-15T00:37:37;96666.38;;;-5.87;100.00
51261;BME280;61705;46.228;24.812;2024-01-15T00:40:04;96676.63;;;-6.02;100.00
51261;BME280;61705;46.228;24.812;2024-01-15T00:42:31;96662.88;;;-6.20;100.00
51261;BME280;61705;46.228;24.812;2024-01-15T00:44:57;96664.50;;;-6.40;100.00
51261;BME280;61705;46.228;24.812;2024-01-15T00:47:24;96668.75;;;-6.51;100.00
51261;BME280;61705;46.228;24.812;2024-01-15T00:49:50;96659.34;;;-6.43;100.00
51261;BME280;61705;46.228;24.812;2024-01-15T00:52:17;96663.66;;;-6.45;100.00
51261;BME280;61705;46.228;24.812;2024-01-15T00:54:44;96656.81;;;-6.34;100.00
51261;BME280;61705;46.228;24.812;2024-01-15T00:57:10;96664.53;;;-6.37;100.00
51261;BME280;61705;46.228;24.812;2024-01-15T00:59:37;96668.03;;;-6.21;100.00
51261;BME280;61705;46.228;24.812;2024-01-15T01:02:04;96662.84;;;-6.30;100.00
51261;BME280;61705;46.228;24.812;2024-01-15T01:04:30;96652.50;;;-6.41;100.00
51261;BME280;61705;46.228;24.812;2024-01-15T01:06:57;96651.66;;;-6.45;100.00
51261;BME280;61705;46.228;24.812;2024-01-15T01:09:24;96651.63;;;-6.48;100.00
51261;BME280;61705;46.228;24.812;2024-01-15T01:11:51;96648.19;;;-6.47;100.00
51261;BME280;61705;46.228;24.812;2024-01-15T01:14:17;96640.50;;;-6.45;100.00
51261;BME280;61705;46.228;24.812;2024-01-15T01:16:44;96627.63;;;-6.51;100.00
51261;BME280;61705;46.228;24.812;2024-01-15T01:19:11;96621.59;;;-6.62;100.00
51261;BME280;61705;46.228;24.812;2024-01-15T01:21:38;96618.97;;;-6.70;100.00
51261;BME280;61705;46.228;24.812;2024-01-15T01:24:05;96615.56;;;-6.72;100.00
51261;BME280;61705;46.228;24.812;2024-01-15T01:26:31;96623.28;;;-6.68;100.00
51261;BME280;61705;46.228;24.812;2024-01-15T01:28:58;96616.41;;;-6.73;100.00
51261;BME280;61705;46.228;24.812;2024-01-15T01:31:25;96619.81;;;-6.74;100.00
51261;BME280;61705;46.228;24.812;2024-01-15T01:33:52;96612.97;;;-6.74;100.00
51261;BME280;61705;46.228;24.812;2024-01-15T01:36:18;96618.09;;;-6.75;100.00
51261;BME280;61705;46.228;24.812;2024-01-15T01:38:45;96612.97;;;-6.75;100.00
51261;BME280;61705;46.228;24.812;2024-01-15T01:41:12;96608.72;;;-6.69;100.00
51261;BME280;61705;46.228;24.812;2024-01-15T01:43:38;96606.13;;;-6.72;100.00
51261;BME280;61705;46.228;24.812;2024-01-15T01:46:05;96598.44;;;-6.69;100.00
51261;BME280;61705;46.228;24.812;2024-01-15T01:48:31;96601.00;;;-6.70;100.00
51261;BME280;61705;46.228;24.812;2024-01-15T01:50:59;96613.91;;;-6.62;100.00
51261;BME280;61705;46.228;24.812;2024-01-15T01:53:26;96601.00;;;-6.72;100.00
51261;BME280;61705;46.228;24.812;2024-01-15T01:55:54;96606.88;;;-6.96;100.00
51261;BME280;61705;46.228;24.812;2024-01-15T01:58:21;96609.44;;;-7.00;100.00
51261;BME280;61705;46.228;24.812;2024-01-15T02:00:47;96594.91;;;-6.91;100.00
51261;BME280;61705;46.228;24.812;2024-01-15T02:03:15;96600.13;;;-6.78;100.00
51261;BME280;61705;46.228;24.812;2024-01-15T02:05:42;96604.38;;;-6.80;100.00
51261;BME280;61705;46.228;24.812;2024-01-15T02:08:11;96600.13;;;-6.74;100.00
51261;BME280;61705;46.228;24.812;2024-01-15T02:10:37;96601.03;;;-6.64;100.00
51261;BME280;61705;46.228;24.812;2024-01-15T02:13:04;96598.50;;;-6.56;100.00
51261;BME280;61705;46.228;24.812;2024-01-15T02:15:30;96591.66;;;-6.54;100.00
51261;BME280;61705;46.228;24.812;2024-01-15T02:17:58;96589.09;;;-6.54;100.00
51261;BME280;61705;46.228;24.812;2024-01-15T02:20:25;96583.94;;;-6.50;100.00
51261;BME280;61705;46.228;24.812;2024-01-15T02:22:52;96583.13;;;-6.49;100.00
51261;BME280;61705;46.228;24.812;2024-01-15T02:25:19;96586.56;;;-6.40;100.00
51261;BME280;61705;46.228;24.812;2024-01-15T02:27:45;96593.44;;;-6.38;100.00
51261;BME280;61705;46.228;24.812;2024-01-15T02:30:12;96578.00;;;-6.36;100.00
51261;BME280;61705;46.228;24.812;2024-01-15T02:32:39;96577.16;;;-6.34;100.00
51261;BME280;61705;46.228;24.812;2024-01-15T02:35:06;96562.56;;;-6.39;100.00
51261;BME280;61705;46.228;24.812;2024-01-15T02:37:32;96565.13;;;-6.39;100.00
51261;BME280;61705;46.228;24.812;2024-01-15T02:39:59;96561.72;;;-6.40;100.00
51261;BME280;61705;46.228;24.812;2024-01-15T02:42:26;96563.47;;;-6.31;100.00
51261;BME280;61705;46.228;24.812;2024-01-15T02:44:53;96549.75;;;-6.38;100.00
51261;BME280;61705;46.228;24.812;2024-01-15T02:47:19;96554.88;;;-6.30;100.00
51261;BME280;61705;46.228;24.812;2024-01-15T02:49:46;96560.03;;;-6.30;100.00
51261;BME280;61705;46.228;24.812;2024-01-15T02:52:13;96532.59;;;-6.34;100.00
51261;BME280;61705;46.228;24.812;2024-01-15T02:54:39;96539.47;;;-6.29;100.00
51261;BME280;61705;46.228;24.812;2024-01-15T02:57:06;96563.44;;;-6.33;100.00
51261;BME280;61705;46.228;24.812;2024-01-15T02:59:33;96573.69;;;-6.48;100.00
51261;BME280;61705;46.228;24.812;2024-01-15T03:01:59;96566.84;;;-6.49;100.00
51261;BME280;61705;46.228;24.812;2024-01-15T03:04:26;96565.13;;;-6.46;100.00
51261;BME280;61705;46.228;24.812;2024-01-15T03:06:53;96554.03;;;-6.35;100.00
51261;BME280;61705;46.228;24.812;2024-01-15T03:09:19;96542.03;;;-6.30;100.00
51261;BME280;61705;46.228;24.812;2024-01-15T03:11:46;96530.91;;;-6.31;100.00
51261;BME280;61705;46.228;24.812;2024-01-15T03:14:13;96536.06;;;-6.32;100.00
51261;BME280;61705;46.228;24.812;2024-01-15T03:16:39;96535.19;;;-6.30;100.00
51261;BME280;61705;46.228;24.812;2024-01-15T03:19:06;96531.75;;;-6.26;100.00
51261;BME280;61705;46.228;24.812;2024-01-15T03:21:33;96526.66;;;-6.18;100.00
51261;BME280;61705;46.228;24.812;2024-01-15T03:23:59;96518.06;;;-6.17;100.00
51261;BME280;61705;46.228;24.812;2024-01-15T03:26:26;96522.34;;;-6.10;100.00
51261;BME280;61705;46.228;24.812;2024-01-15T03:28:53;96510.34;;;-6.12;100.00
51261;BME280;61705;46.228;24.812;2024-01-15T03:31:19;96504.34;;;-6.16;100.00
51261;BME280;61705;46.228;24.812;2024-01-15T03:33:46;96506.91;;;-6.19;100.00
51261;BME280;61705;46.228;24.812;2024-01-15T03:36:12;96502.63;;;-6.28;100.00
51261;BME280;61705;46.228;24.812;2024-01-15T03:38:40;96513.75;;;-6.38;100.00
51261;BME280;61705;46.228;24.812;2024-01-15T03:41:07;96508.59;;;-6.41;100.00
51261;BME280;61705;46.228;24.812;2024-01-15T03:43:34;96507.75;;;-6.40;100.00
51261;BME280;61705;46.228;24.812;2024-01-15T03:46:01;96501.75;;;-6.40;100.00
51261;BME280;61705;46.228;24.812;2024-01-15T03:48:28;96505.16;;;-6.46;100.00
51261;BME280;61705;46.228;24.812;2024-01-15T03:50:55;96499.16;;;-6.51;100.00
51261;BME280;61705;46.228;24.812;2024-01-15T03:53:22;96506.91;;;-6.31;100.00
51261;BME280;61705;46.228;24.812;2024-01-15T03:55:48;96506.06;;;-6.21;100.00
51261;BME280;61705;46.228;24.812;2024-01-15T03:58:15;96498.38;;;-6.18;100.00
51261;BME280;61705;46.228;24.812;2024-01-15T04:00:44;96488.91;;;-6.05;100.00
51261;BME280;61705;46.228;24.812;2024-01-15T04:03:11;96506.06;;;-6.03;100.00
51261;BME280;61705;46.228;24.812;2024-01-15T04:05:38;96500.94;;;-6.07;100.00
51261;BME280;61705;46.228;24.812;2024-01-15T04:08:04;96492.38;;;-6.00;100.00
51261;BME280;61705;46.228;24.812;2024-01-15T04:10:31;96487.22;;;-5.92;100.00
51261;BME280;61705;46.228;24.812;2024-01-15T04:12:58;96489.75;;;-5.89;100.00
51261;BME280;61705;46.228;24.812;2024-01-15T04:15:26;96482.03;;;-5.82;100.00
51261;BME280;61705;46.228;24.812;2024-01-15T04:17:53;96474.34;;;-5.88;100.00
51261;BME280;61705;46.228;24.812;2024-01-15T04:20:22;96467.47;;;-5.84;100.00
51261;BME280;61705;46.228;24.812;2024-01-15T04:22:51;96466.59;;;-5.77;100.00
51261;BME280;61705;46.228;24.812;2024-01-15T04:25:17;96472.59;;;-5.72;100.00
51261;BME280;61705;46.228;24.812;2024-01-15T04:27:44;96474.31;;;-5.79;100.00
51261;BME280;61705;46.228;24.812;2024-01-15T04:30:10;96465.72;;;-5.75;100.00
51261;BME280;61705;46.228;24.812;2024-01-15T04:32:42;96465.72;;;-5.72;100.00
51261;BME280;61705;46.228;24.812;2024-01-15T04:35:09;96461.44;;;-5.69;100.00
51261;BME280;61705;46.228;24.812;2024-01-15T04:37:35;96476.00;;;-5.68;100.00
51261;BME280;61705;46.228;24.812;2024-01-15T04:40:02;96470.03;;;-5.70;100.00
51261;BME280;61705;46.228;24.812;2024-01-15T04:42:30;96459.72;;;-5.63;100.00
51261;BME280;61705;46.228;24.812;2024-01-15T04:44:57;96458.00;;;-5.56;100.00
51261;BME280;61705;46.228;24.812;2024-01-15T04:47:23;96456.25;;;-5.51;100.00
51261;BME280;61705;46.228;24.812;2024-01-15T04:49:50;96441.66;;;-5.46;100.00
51261;BME280;61705;46.228;24.812;2024-01-15T04:52:17;96442.50;;;-5.44;100.00
51261;BME280;61705;46.228;24.812;2024-01-15T04:54:44;96448.53;;;-5.48;100.00
51261;BME280;61705;46.228;24.812;2024-01-15T04:57:10;96444.25;;;-5.46;100.00
51261;BME280;61705;46.228;24.812;2024-01-15T04:59:37;96443.34;;;-5.42;100.00
51261;BME280;61705;46.228;24.812;2024-01-15T05:02:03;96433.09;;;-5.43;100.00
51261;BME280;61705;46.228;24.812;2024-01-15T05:04:30;96418.47;;;-5.44;100.00
51261;BME280;61705;46.228;24.812;2024-01-15T05:06:57;96417.63;;;-5.39;100.00
51261;BME280;61705;46.228;24.812;2024-01-15T05:09:24;96422.78;;;-5.51;100.00
51261;BME280;61705;46.228;24.812;2024-01-15T05:11:50;96423.66;;;-5.58;100.00
51261;BME280;61705;46.228;24.812;2024-01-15T05:14:17;96428.88;;;-5.70;100.00
51261;BME280;61705;46.228;24.812;2024-01-15T05:16:47;96429.72;;;-5.70;100.00
51261;BME280;61705;46.228;24.812;2024-01-15T05:19:14;96429.69;;;-5.65;100.00
51261;BME280;61705;46.228;24.812;2024-01-15T05:21:41;96435.72;;;-5.69;100.00
51261;BME280;61705;46.228;24.812;2024-01-15T05:24:08;96424.56;;;-5.67;100.00
51261;BME280;61705;46.228;24.812;2024-01-15T05:26:34;96414.28;;;-5.72;100.00
51261;BME280;61705;46.228;24.812;2024-01-15T05:29:01;96414.28;;;-5.75;100.00
51261;BME280;61705;46.228;24.812;2024-01-15T05:31:28;96419.47;;;-5.84;100.00
51261;BME280;61705;46.228;24.812;2024-01-15T05:33:54;96410.84;;;-5.70;100.00
51261;BME280;61705;46.228;24.812;2024-01-15T05:36:21;96391.97;;;-5.71;100.00
51261;BME280;61705;46.228;24.812;2024-01-15T05:38:48;96399.69;;;-5.73;100.00
51261;BME280;61705;46.228;24.812;2024-01-15T05:41:16;96391.97;;;-5.71;100.00
51261;BME280;61705;46.228;24.812;2024-01-15T05:43:43;96392.81;;;-5.66;100.00
51261;BME280;61705;46.228;24.812;2024-01-15T05:46:09;96392.78;;;-5.55;100.00
51261;BME280;61705;46.228;24.812;2024-01-15T05:48:36;96378.22;;;-5.56;100.00
51261;BME280;61705;46.228;24.812;2024-01-15T05:51:02;96380.78;;;-5.50;100.00
51261;BME280;61705;46.228;24.812;2024-01-15T05:53:29;96380.69;;;-5.35;100.00
51261;BME280;61705;46.228;24.812;2024-01-15T05:55:56;96384.97;;;-5.26;100.00
51261;BME280;61705;46.228;24.812;2024-01-15T05:58:23;96383.16;;;-5.16;100.00
51261;BME280;61705;46.228;24.812;2024-01-15T06:00:49;96384.00;;;-5.13;100.00
51261;BME280;61705;46.228;24.812;2024-01-15T06:03:16;96382.31;;;-5.09;100.00
51261;BME280;61705;46.228;24.812;2024-01-15T06:05:43;96380.50;;;-4.96;100.00
51261;BME280;61705;46.228;24.812;2024-01-15T06:08:10;96383.09;;;-4.98;100.00
51261;BME280;61705;46.228;24.812;2024-01-15T06:10:37;96380.47;;;-4.93;100.00
51261;BME280;61705;46.228;24.812;2024-01-15T06:13:03;96379.56;;;-4.83;100.00
51261;BME280;61705;46.228;24.812;2024-01-15T06:15:30;96372.66;;;-4.77;100.00
51261;BME280;61705;46.228;24.812;2024-01-15T06:17:57;96370.84;;;-4.65;100.00
51261;BME280;61705;46.228;24.812;2024-01-15T06:20:24;96370.03;;;-4.70;100.00
51261;BME280;61705;46.228;24.812;2024-01-15T06:22:50;96372.56;;;-4.61;100.00
51261;BME280;61705;46.228;24.812;2024-01-15T06:25:17;96370.81;;;-4.61;100.00
51261;BME280;61705;46.228;24.812;2024-01-15T06:27:43;96364.72;;;-4.52;100.00
51261;BME280;61705;46.228;24.812;2024-01-15T06:30:10;96373.38;;;-4.55;100.00
51261;BME280;61705;46.228;24.812;2024-01-15T06:32:37;96362.28;;;-4.67;100.00
51261;BME280;61705;46.228;24.812;2024-01-15T06:35:04;96359.72;;;-4.72;100.00
51261;BME280;61705;46.228;24.812;2024-01-15T06:37:31;96360.53;;;-4.65;100.00
51261;BME280;61705;46.228;24.812;2024-01-15T06:39:59;96353.63;;;-4.59;100.00
51261;BME280;61705;46.228;24.812;2024-01-15T06:42:25;96369.91;;;-4.55;100.00
51261;BME280;61705;46.228;24.812;2024-01-15T06:44:52;96360.47;;;-4.56;100.00
51261;BME280;61705;46.228;24.812;2024-01-15T06:47:19;96364.72;;;-4.50;100.00
51261;BME280;61705;46.228;24.812;2024-01-15T06:49:45;96348.41;;;-4.51;100.00
51261;BME280;61705;46.228;24.812;2024-01-15T06:52:12;96356.97;;;-4.49;100.00
51261;BME280;61705;46.228;24.812;2024-01-15T06:54:39;96373.28;;;-4.45;100.00
51261;BME280;61705;46.228;24.812;2024-01-15T06:57:05;96355.97;;;-4.34;100.00
51261;BME280;61705;46.228;24.812;2024-01-15T06:59:33;96365.38;;;-4.25;100.00
51261;BME280;61705;46.228;24.812;2024-01-15T07:02:00;96356.84;;;-4.31;100.00
51261;BME280;61705;46.228;24.812;2024-01-15T07:04:27;96351.59;;;-4.24;100.00
51261;BME280;61705;46.228;24.812;2024-01-15T07:06:54;96351.47;;;-4.09;100.00
51261;BME280;61705;46.228;24.812;2024-01-15T07:09:21;96347.09;;;-3.99;100.00
51261;BME280;61705;46.228;24.812;2024-01-15T07:11:47;96347.91;;;-3.96;100.00
51261;BME280;61705;46.228;24.812;2024-01-15T07:14:14;96337.56;;;-3.93;100.00
51261;BME280;61705;46.228;24.812;2024-01-15T07:16:41;96343.47;;;-3.85;100.00
51261;BME280;61705;46.228;24.812;2024-01-15T07:19:12;96339.06;;;-3.73;100.00
51261;BME280;61705;46.228;24.812;2024-01-15T07:21:39;96337.38;;;-3.76;100.00
51261;BME280;61705;46.228;24.812;2024-01-15T07:24:06;96335.56;;;-3.69;100.00
51261;BME280;61705;46.228;24.812;2024-01-15T07:26:33;96338.13;;;-3.68;100.00
51261;BME280;61705;46.228;24.812;2024-01-15T07:28:59;96338.06;;;-3.62;100.00
51261;BME280;61705;46.228;24.812;2024-01-15T07:31:26;96331.19;;;-3.63;100.00
51261;BME280;61705;46.228;24.812;2024-01-15T07:33:53;96330.16;;;-3.49;100.00
51261;BME280;61705;46.228;24.812;2024-01-15T07:36:20;96331.88;;;-3.47;100.00
51261;BME280;61705;46.228;24.812;2024-01-15T07:38:47;96329.28;;;-3.47;100.00
51261;BME280;61705;46.228;24.812;2024-01-15T07:41:14;96331.72;;;-3.35;100.00
51261;BME280;61705;46.228;24.812;2024-01-15T07:43:40;96330.75;;;-3.27;100.00
51261;BME280;61705;46.228;24.812;2024-01-15T07:46:07;96330.00;;;-3.34;100.00
51261;BME280;61705;46.228;24.812;2024-01-15T07:48:33;96324.09;;;-3.45;100.00
51261;BME280;61705;46.228;24.812;2024-01-15T07:51:00;96327.44;;;-3.37;100.00
51261;BME280;61705;46.228;24.812;2024-01-15T07:53:27;96323.88;;;-3.28;100.00
51261;BME280;61705;46.228;24.812;2024-01-15T07:55:54;96319.47;;;-3.22;100.00
51261;BME280;61705;46.228;24.812;2024-01-15T07:58:20;96308.25;;;-3.19;100.00
51261;BME280;61705;46.228;24.812;2024-01-15T08:00:47;96305.72;;;-3.21;100.00
51261;BME280;61705;46.228;24.812;2024-01-15T08:03:14;96305.59;;;-3.13;100.00
51261;BME280;61705;46.228;24.812;2024-01-15T08:05:42;96296.88;;;-3.06;100.00
51261;BME280;61705;46.228;24.812;2024-01-15T08:08:08;96290.75;;;-2.99;100.00
51261;BME280;61705;46.228;24.812;2024-01-15T08:10:35;96284.50;;;-2.86;100.00
51261;BME280;61705;46.228;24.812;2024-01-15T08:13:01;96286.94;;;-2.75;100.00
51261;BME280;61705;46.228;24.812;2024-01-15T08:15:28;96286.03;;;-2.74;100.00
51261;BME280;61705;46.228;24.812;2024-01-15T08:17:57;96279.03;;;-2.66;100.00
51261;BME280;61705;46.228;24.812;2024-01-15T08:20:24;96274.19;;;-2.34;100.00
51261;BME280;61705;46.228;24.812;2024-01-15T08:22:50;96274.78;;;-2.20;100.00
51261;BME280;61705;46.228;24.812;2024-01-15T08:25:17;96273.59;;;-2.01;100.00
51261;BME280;61705;46.228;24.812;2024-01-15T08:27:44;96280.31;;;-1.92;100.00
51261;BME280;61705;46.228;24.812;2024-01-15T08:30:11;96271.63;;;-1.88;100.00
51261;BME280;61705;46.228;24.812;2024-01-15T08:32:38;96269.59;;;-1.74;100.00
51261;BME280;61705;46.228;24.812;2024-01-15T08:35:09;96264.28;;;-1.68;100.00
51261;BME280;61705;46.228;24.812;2024-01-15T08:37:36;96255.38;;;-1.53;100.00
51261;BME280;61705;46.228;24.812;2024-01-15T08:40:03;96257.28;;;-1.62;100.00
51261;BME280;61705;46.228;24.812;2024-01-15T08:42:30;96265.13;;;-1.65;100.00
51261;BME280;61705;46.228;24.812;2024-01-15T08:44:57;96259.66;;;-1.52;100.00
51261;BME280;61705;46.228;24.812;2024-01-15T08:47:23;96251.78;;;-1.47;100.00
51261;BME280;61705;46.228;24.812;2024-01-15T08:49:52;96249.94;;;-1.42;100.00
51261;BME280;61705;46.228;24.812;2024-01-15T08:52:21;96260.06;;;-1.31;100.00
51261;BME280;61705;46.228;24.812;2024-01-15T08:54:48;96253.13;;;-1.29;100.00
51261;BME280;61705;46.228;24.812;2024-01-15T08:57:14;96245.97;;;-1.18;100.00
51261;BME280;61705;46.228;24.812;2024-01-15T08:59:41;96244.75;;;-1.02;100.00
51261;BME280;61705;46.228;24.812;2024-01-15T09:02:08;96238.50;;;-0.94;100.00
51261;BME280;61705;46.228;24.812;2024-01-15T09:04:38;96238.31;;;-0.85;100.00
51261;BME280;61705;46.228;24.812;2024-01-15T09:07:05;96243.31;;;-0.79;100.00
51261;BME280;61705;46.228;24.812;2024-01-15T09:09:31;96235.28;;;-0.68;100.00
51261;BME280;61705;46.228;24.812;2024-01-15T09:11:58;96237.84;;;-0.67;100.00
51261;BME280;61705;46.228;24.812;2024-01-15T09:14:25;96225.53;;;-0.59;100.00
51261;BME280;61705;46.228;24.812;2024-01-15T09:17:03;96224.69;;;-0.59;100.00
51261;BME280;61705;46.228;24.812;2024-01-15T09:19:32;96211.50;;;-0.52;100.00
51261;BME280;61705;46.228;24.812;2024-01-15T09:21:59;96200.00;;;-0.41;100.00
51261;BME280;61705;46.228;24.812;2024-01-15T09:24:26;96203.91;;;-0.25;100.00
51261;BME280;61705;46.228;24.812;2024-01-15T09:26:54;96190.59;;;-0.13;100.00
51261;BME280;61705;46.228;24.812;2024-01-15T09:29:21;96191.22;;;-0.03;100.00
51261;BME280;61705;46.228;24.812;2024-01-15T09:31:50;96174.59;;;0.03;100.00
51261;BME280;61705;46.228;24.812;2024-01-15T09:34:19;96171.97;;;0.04;100.00
51261;BME280;61705;46.228;24.812;2024-01-15T09:36:46;96168.28;;;0.11;100.00
51261;BME280;61705;46.228;24.812;2024-01-15T09:39:14;96163.44;;;0.29;100.00
51261;BME280;61705;46.228;24.812;2024-01-15T09:41:42;96160.69;;;0.35;100.00
51261;BME280;61705;46.228;24.812;2024-01-15T09:44:09;96142.94;;;0.47;100.00
51261;BME280;61705;46.228;24.812;2024-01-15T09:46:37;96126.16;;;0.59;100.00
51261;BME280;61705;46.228;24.812;2024-01-15T09:49:04;96124.16;;;0.67;100.00
51261;BME280;61705;46.228;24.812;2024-01-15T09:51:32;96125.72;;;0.73;100.00
51261;BME280;61705;46.228;24.812;2024-01-15T09:53:59;96116.75;;;0.82;100.00
51261;BME280;61705;46.228;24.812;2024-01-15T09:56:25;96124.53;;;0.83;100.00
51261;BME280;61705;46.228;24.812;2024-01-15T09:58:52;96118.50;;;0.81;100.00
51261;BME280;61705;46.228;24.812;2024-01-15T10:01:22;96113.31;;;0.81;100.00
51261;BME280;61705;46.228;24.812;2024-01-15T10:03:49;96107.25;;;0.81;100.00
51261;BME280;61705;46.228;24.812;2024-01-15T10:06:16;96096.75;;;0.84;100.00
51261;BME280;61705;46.228;24.812;2024-01-15T10:08:48;96084.56;;;0.86;100.00
51261;BME280;61705;46.228;24.812;2024-01-15T10:11:16;96082.38;;;1.00;100.00
51261;BME280;61705;46.228;24.812;2024-01-15T10:13:43;96082.19;;;1.05;100.00
51261;BME280;61705;46.228;24.812;2024-01-15T10:16:11;96071.88;;;1.02;100.00
51261;BME280;61705;46.228;24.812;2024-01-15T10:18:38;96084.91;;;1.02;100.00
51261;BME280;61705;46.228;24.812;2024-01-15T10:21:06;96076.50;;;0.93;100.00
51261;BME280;61705;46.228;24.812;2024-01-15T10:23:32;96071.75;;;1.06;100.00
51261;BME280;61705;46.228;24.812;2024-01-15T10:25:59;96065.38;;;1.15;100.00
51261;BME280;61705;46.228;24.812;2024-01-15T10:28:26;96061.09;;;1.14;100.00
51261;BME280;61705;46.228;24.812;2024-01-15T10:30:56;96055.78;;;1.17;100.00
51261;BME280;61705;46.228;24.812;2024-01-15T10:33:24;96055.34;;;1.04;100.00
51261;BME280;61705;46.228;24.812;2024-01-15T10:35:55;96046.41;;;1.11;100.00
51261;BME280;61705;46.228;24.812;2024-01-15T10:38:22;96044.38;;;1.19;100.00
51261;BME280;61705;46.228;24.812;2024-01-15T10:40:52;96041.00;;;1.17;100.00
51261;BME280;61705;46.228;24.812;2024-01-15T10:43:19;96027.78;;;1.24;100.00
51261;BME280;61705;46.228;24.812;2024-01-15T10:45:47;96038.25;;;1.22;100.00
51261;BME280;61705;46.228;24.812;2024-01-15T10:48:13;96035.84;;;1.16;100.00
51261;BME280;61705;46.228;24.812;2024-01-15T10:50:40;96036.75;;;1.15;100.00
51261;BME280;61705;46.228;24.812;2024-01-15T10:53:08;96033.13;;;1.19;100.00
51261;BME280;61705;46.228;24.812;2024-01-15T10:55:35;96027.72;;;1.25;100.00
51261;BME280;61705;46.228;24.812;2024-01-15T10:58:03;96023.06;;;1.35;100.00
51261;BME280;61705;46.228;24.812;2024-01-15T11:00:30;96007.47;;;1.33;100.00
51261;BME280;61705;46.228;24.812;2024-01-15T11:02:57;96016.38;;;1.28;100.00
51261;BME280;61705;46.228;24.812;2024-01-15T11:05:25;96012.69;;;1.33;100.00
51261;BME280;61705;46.228;24.812;2024-01-15T11:07:54;96014.41;;;1.34;100.00
51261;BME280;61705;46.228;24.812;2024-01-15T11:10:40;96012.94;;;1.27;100.00
51261;BME280;61705;46.228;24.812;2024-01-15T11:13:19;96001.66;;;1.27;100.00
51261;BME280;61705;46.228;24.812;2024-01-15T11:15:58;95992.00;;;1.30;100.00
51261;BME280;61705;46.228;24.812;2024-01-15T11:18:26;95988.38;;;1.34;100.00
51261;BME280;61705;46.228;24.812;2024-01-15T11:23:42;95979.66;;;1.35;100.00
51261;BME280;61705;46.228;24.812;2024-01-15T11:28:55;95980.34;;;1.17;100.00
51261;BME280;61705;46.228;24.812;2024-01-15T11:31:26;95971.63;;;1.18;100.00
51261;BME280;61705;46.228;24.812;2024-01-15T11:33:53;95974.66;;;1.29;100.00
51261;BME280;61705;46.228;24.812;2024-01-15T11:36:42;95975.00;;;1.43;100.00
51261;BME280;61705;46.228;24.812;2024-01-15T11:39:54;95970.19;;;1.56;100.00
51261;BME280;61705;46.228;24.812;2024-01-15T11:41:55;95965.69;;;1.61;100.00
51261;BME280;61705;46.228;24.812;2024-01-15T11:44:21;95968.31;;;1.60;100.00
51261;BME280;61705;46.228;24.812;2024-01-15T11:46:58;95971.31;;;1.51;100.00
51261;BME280;61705;46.228;24.812;2024-01-15T11:49:41;95967.34;;;1.40;100.00
51261;BME280;61705;46.228;24.812;2024-01-15T11:52:18;95967.09;;;1.47;100.00
51261;BME280;61705;46.228;24.812;2024-01-15T11:54:47;95959.47;;;1.42;100.00
51261;BME280;61705;46.228;24.812;2024-01-15T11:57:19;95959.91;;;1.53;100.00
51261;BME280;61705;46.228;24.812;2024-01-15T11:59:48;95961.38;;;1.60;100.00
51261;BME280;61705;46.228;24.812;2024-01-15T12:02:15;95956.00;;;1.65;100.00
51261;BME280;61705;46.228;24.812;2024-01-15T12:04:41;95949.06;;;1.64;100.00
51261;BME280;61705;46.228;24.812;2024-01-15T12:07:11;95952.59;;;1.63;100.00
51261;BME280;61705;46.228;24.812;2024-01-15T12:09:42;95953.28;;;1.68;100.00
51261;BME280;61705;46.228;24.812;2024-01-15T12:12:09;95945.53;;;1.66;100.00
51261;BME280;61705;46.228;24.812;2024-01-15T12:14:41;95950.59;;;1.70;100.00
51261;BME280;61705;46.228;24.812;2024-01-15T12:17:07;95957.69;;;1.66;100.00
51261;BME280;61705;46.228;24.812;2024-01-15T12:19:34;95951.41;;;1.72;100.00
51261;BME280;61705;46.228;24.812;2024-01-15T12:22:01;95959.84;;;1.78;100.00
51261;BME280;61705;46.228;24.812;2024-01-15T12:24:37;95958.41;;;1.70;100.00
51261;BME280;61705;46.228;24.812;2024-01-15T12:27:03;95973.00;;;1.74;100.00
51261;BME280;61705;46.228;24.812;2024-01-15T12:29:30;95970.28;;;1.77;100.00
51261;BME280;61705;46.228;24.812;2024-01-15T12:31:57;95962.31;;;1.81;100.00
51261;BME280;61705;46.228;24.812;2024-01-15T12:34:23;95956.50;;;1.97;100.00
51261;BME280;61705;46.228;24.812;2024-01-15T12:36:50;95958.22;;;2.20;100.00
51261;BME280;61705;46.228;24.812;2024-01-15T12:39:17;95955.63;;;2.18;100.00
51261;BME280;61705;46.228;24.812;2024-01-15T12:41:43;95952.50;;;2.10;100.00
51261;BME280;61705;46.228;24.812;2024-01-15T12:44:10;95955.00;;;2.13;100.00
51261;BME280;61705;46.228;24.812;2024-01-15T12:46:38;95948.81;;;2.16;100.00
51261;BME280;61705;46.228;24.812;2024-01-15T12:49:04;95955.03;;;2.11;100.00